sensor_id;sensor_type;location;lat;lon;timestamp;P1;durP1;ratioP1;P2;durP2;ratioP2
54853;SDS011;40747;49.480;8.658;2024-02-28T00:01:24;5.75;;;3.85;;
54853;SDS011;40747;49.480;8.658;2024-02-28T00:03:50;7.97;;;4.18;;
54853;SDS011;40747;49.480;8.658;2024-02-28T00:06:17;6.78;;;5.57;;
54853;SDS011;40747;49.480;8.658;2024-02-28T00:08:43;5.47;;;3.53;;
54853;SDS011;40747;49.480;8.658;2024-02-28T00:11:09;7.10;;;4.50;;
54853;SDS011;40747;49.480;8.658;2024-02-28T00:13:35;9.00;;;4.97;;
54853;SDS011;40747;49.480;8.658;2024-02-28T00:16:02;6.05;;;3.55;;
54853;SDS011;40747;49.480;8.658;2024-02-28T00:18:28;5.03;;;3.83;;
54853;SDS011;40747;49.480;8.658;2024-02-28T00:20:57;9.73;;;5.25;;
54853;SDS011;40747;49.480;8.658;2024-02-28T00:23:24;4.90;;;3.53;;
54853;SDS011;40747;49.480;8.658;2024-02-28T00:25:50;7.38;;;4.10;;
54853;SDS011;40747;49.480;8.658;2024-02-28T00:28:16;5.97;;;4.22;;
54853;SDS011;40747;49.480;8.658;2024-02-28T00:30:43;9.80;;;4.55;;
54853;SDS011;40747;49.480;8.658;2024-02-28T00:33:09;8.48;;;3.58;;
54853;SDS011;40747;49.480;8.658;2024-02-28T00:35:35;5.13;;;3.42;;
54853;SDS011;40747;49.480;8.658;2024-02-28T00:38:02;5.75;;;4.28;;
54853;SDS011;40747;49.480;8.658;2024-02-28T00:40:28;6.30;;;3.90;;
54853;SDS011;40747;49.480;8.658;2024-02-28T00:42:54;6.97;;;3.55;;
54853;SDS011;40747;49.480;8.658;2024-02-28T00:45:20;6.50;;;4.50;;
54853;SDS011;40747;49.480;8.658;2024-02-28T00:47:46;7.85;;;4.53;;
54853;SDS011;40747;49.480;8.658;2024-02-28T00:50:13;2.97;;;2.63;;
54853;SDS011;40747;49.480;8.658;2024-02-28T00:52:39;3.95;;;3.10;;
54853;SDS011;40747;49.480;8.658;2024-02-28T00:55:06;8.80;;;5.68;;
54853;SDS011;40747;49.480;8.658;2024-02-28T00:57:33;6.28;;;4.07;;
54853;SDS011;40747;49.480;8.658;2024-02-28T01:00:00;7.70;;;4.55;;
54853;SDS011;40747;49.480;8.658;2024-02-28T01:02:26;9.10;;;3.45;;
54853;SDS011;40747;49.480;8.658;2024-02-28T01:04:52;5.30;;;4.25;;
54853;SDS011;40747;49.480;8.658;2024-02-28T01:07:18;6.20;;;3.30;;
54853;SDS011;40747;49.480;8.658;2024-02-28T01:09:45;7.03;;;4.00;;
54853;SDS011;40747;49.480;8.658;2024-02-28T01:12:10;6.53;;;4.72;;
54853;SDS011;40747;49.480;8.658;2024-02-28T01:14:36;7.70;;;3.60;;
54853;SDS011;40747;49.480;8.658;2024-02-28T01:17:02;7.47;;;5.05;;
54853;SDS011;40747;49.480;8.658;2024-02-28T01:19:28;5.57;;;4.03;;
54853;SDS011;40747;49.480;8.658;2024-02-28T01:21:54;6.70;;;4.78;;
54853;SDS011;40747;49.480;8.658;2024-02-28T01:24:20;9.85;;;3.90;;
54853;SDS011;40747;49.480;8.658;2024-02-28T01:26:45;5.28;;;3.00;;
54853;SDS011;40747;49.480;8.658;2024-02-28T01:29:11;16.65;;;4.32;;
54853;SDS011;40747;49.480;8.658;2024-02-28T01:31:37;8.68;;;4.32;;
54853;SDS011;40747;49.480;8.658;2024-02-28T01:34:03;7.07;;;4.90;;
54853;SDS011;40747;49.480;8.658;2024-02-28T01:36:30;6.32;;;4.50;;
54853;SDS011;40747;49.480;8.658;2024-02-28T01:38:56;7.55;;;4.40;;
54853;SDS011;40747;49.480;8.658;2024-02-28T01:41:22;4.18;;;3.15;;
54853;SDS011;40747;49.480;8.658;2024-02-28T01:43:48;8.15;;;5.93;;
54853;SDS011;40747;49.480;8.658;2024-02-28T01:46:22;5.35;;;3.97;;
54853;SDS011;40747;49.480;8.658;2024-02-28T01:48:51;5.88;;;5.00;;
54853;SDS011;40747;49.480;8.658;2024-02-28T01:51:18;9.10;;;4.68;;
54853;SDS011;40747;49.480;8.658;2024-02-28T01:53:45;7.25;;;4.03;;
54853;SDS011;40747;49.480;8.658;2024-02-28T01:56:14;9.63;;;3.75;;
54853;SDS011;40747;49.480;8.658;2024-02-28T01:58:42;7.85;;;4.57;;
54853;SDS011;40747;49.480;8.658;2024-02-28T02:01:12;6.07;;;3.63;;
54853;SDS011;40747;49.480;8.658;2024-02-28T02:03:41;6.88;;;4.68;;
54853;SDS011;40747;49.480;8.658;2024-02-28T02:06:08;5.65;;;4.45;;
54853;SDS011;40747;49.480;8.658;2024-02-28T02:08:36;13.43;;;4.22;;
54853;SDS011;40747;49.480;8.658;2024-02-28T02:11:03;6.45;;;4.45;;
54853;SDS011;40747;49.480;8.658;2024-02-28T02:13:31;5.28;;;3.53;;
54853;SDS011;40747;49.480;8.658;2024-02-28T02:15:57;5.57;;;3.33;;
54853;SDS011;40747;49.480;8.658;2024-02-28T02:18:23;9.00;;;4.47;;
54853;SDS011;40747;49.480;8.658;2024-02-28T02:20:50;8.93;;;4.35;;
54853;SDS011;40747;49.480;8.658;2024-02-28T02:23:22;6.38;;;4.05;;
54853;SDS011;40747;49.480;8.658;2024-02-28T02:25:48;6.72;;;6.05;;
54853;SDS011;40747;49.480;8.658;2024-02-28T02:28:18;3.63;;;3.20;;
54853;SDS011;40747;49.480;8.658;2024-02-28T02:30:44;10.70;;;6.25;;
54853;SDS011;40747;49.480;8.658;2024-02-28T02:33:12;14.32;;;6.28;;
54853;SDS011;40747;49.480;8.658;2024-02-28T02:35:38;5.05;;;4.18;;
54853;SDS011;40747;49.480;8.658;2024-02-28T02:38:04;9.52;;;5.88;;
54853;SDS011;40747;49.480;8.658;2024-02-28T02:40:30;11.55;;;4.40;;
54853;SDS011;40747;49.480;8.658;2024-02-28T02:42:55;13.40;;;4.93;;
54853;SDS011;40747;49.480;8.658;2024-02-28T02:45:22;5.57;;;4.47;;
54853;SDS011;40747;49.480;8.658;2024-02-28T02:47:47;7.80;;;4.53;;
54853;SDS011;40747;49.480;8.658;2024-02-28T02:50:14;6.75;;;5.47;;
54853;SDS011;40747;49.480;8.658;2024-02-28T02:52:40;5.43;;;3.40;;
54853;SDS011;40747;49.480;8.658;2024-02-28T02:55:07;5.15;;;3.55;;
54853;SDS011;40747;49.480;8.658;2024-02-28T02:57:33;6.50;;;4.70;;
54853;SDS011;40747;49.480;8.658;2024-02-28T02:59:59;6.47;;;3.22;;
54853;SDS011;40747;49.480;8.658;2024-02-28T03:02:25;8.25;;;4.78;;
54853;SDS011;40747;49.480;8.658;2024-02-28T03:04:52;6.90;;;4.13;;
54853;SDS011;40747;49.480;8.658;2024-02-28T03:07:18;7.22;;;4.63;;
54853;SDS011;40747;49.480;8.658;2024-02-28T03:09:43;7.43;;;3.90;;
54853;SDS011;40747;49.480;8.658;2024-02-28T03:12:10;15.63;;;3.65;;
54853;SDS011;40747;49.480;8.658;2024-02-28T03:14:36;4.47;;;3.95;;
54853;SDS011;40747;49.480;8.658;2024-02-28T03:17:02;5.57;;;3.05;;
54853;SDS011;40747;49.480;8.658;2024-02-28T03:19:28;5.18;;;3.70;;
54853;SDS011;40747;49.480;8.658;2024-02-28T03:21:55;9.05;;;4.95;;
54853;SDS011;40747;49.480;8.658;2024-02-28T03:24:21;7.40;;;5.00;;
54853;SDS011;40747;49.480;8.658;2024-02-28T03:26:48;9.25;;;4.68;;
54853;SDS011;40747;49.480;8.658;2024-02-28T03:29:14;9.23;;;5.07;;
54853;SDS011;40747;49.480;8.658;2024-02-28T03:31:40;5.18;;;3.58;;
54853;SDS011;40747;49.480;8.658;2024-02-28T03:34:06;8.40;;;4.70;;
54853;SDS011;40747;49.480;8.658;2024-02-28T03:36:33;10.70;;;4.78;;
54853;SDS011;40747;49.480;8.658;2024-02-28T03:39:00;8.02;;;3.85;;
54853;SDS011;40747;49.480;8.658;2024-02-28T03:41:26;10.15;;;5.78;;
54853;SDS011;40747;49.480;8.658;2024-02-28T03:43:55;14.20;;;6.68;;
54853;SDS011;40747;49.480;8.658;2024-02-28T03:46:22;6.30;;;4.15;;
54853;SDS011;40747;49.480;8.658;2024-02-28T03:48:48;7.45;;;4.50;;
54853;SDS011;40747;49.480;8.658;2024-02-28T03:51:15;5.78;;;3.88;;
54853;SDS011;40747;49.480;8.658;2024-02-28T03:53:42;5.82;;;4.28;;
54853;SDS011;40747;49.480;8.658;2024-02-28T03:56:08;6.47;;;4.20;;
54853;SDS011;40747;49.480;8.658;2024-02-28T03:58:35;5.00;;;4.03;;
54853;SDS011;40747;49.480;8.658;2024-02-28T04:01:01;4.82;;;4.25;;
54853;SDS011;40747;49.480;8.658;2024-02-28T04:03:27;8.25;;;4.93;;
54853;SDS011;40747;49.480;8.658;2024-02-28T04:05:52;4.78;;;3.95;;
54853;SDS011;40747;49.480;8.658;2024-02-28T04:08:18;6.85;;;3.08;;
54853;SDS011;40747;49.480;8.658;2024-02-28T04:10:44;6.20;;;4.20;;
54853;SDS011;40747;49.480;8.658;2024-02-28T04:13:10;8.65;;;5.30;;
54853;SDS011;40747;49.480;8.658;2024-02-28T04:15:36;10.40;;;5.38;;
54853;SDS011;40747;49.480;8.658;2024-02-28T04:18:03;18.75;;;5.28;;
54853;SDS011;40747;49.480;8.658;2024-02-28T04:20:30;7.95;;;5.53;;
54853;SDS011;40747;49.480;8.658;2024-02-28T04:22:56;5.68;;;3.53;;
54853;SDS011;40747;49.480;8.658;2024-02-28T04:25:22;8.00;;;4.95;;
54853;SDS011;40747;49.480;8.658;2024-02-28T04:27:48;6.35;;;3.30;;
54853;SDS011;40747;49.480;8.658;2024-02-28T04:30:15;9.38;;;5.63;;
54853;SDS011;40747;49.480;8.658;2024-02-28T04:32:41;4.50;;;4.10;;
54853;SDS011;40747;49.480;8.658;2024-02-28T04:35:07;7.10;;;5.75;;
54853;SDS011;40747;49.480;8.658;2024-02-28T04:37:33;6.50;;;3.55;;
54853;SDS011;40747;49.480;8.658;2024-02-28T04:40:02;10.00;;;6.50;;
54853;SDS011;40747;49.480;8.658;2024-02-28T04:42:29;12.43;;;4.35;;
54853;SDS011;40747;49.480;8.658;2024-02-28T04:44:55;8.80;;;5.70;;
54853;SDS011;40747;49.480;8.658;2024-02-28T04:47:22;5.35;;;3.78;;
54853;SDS011;40747;49.480;8.658;2024-02-28T04:49:48;5.78;;;4.13;;
54853;SDS011;40747;49.480;8.658;2024-02-28T04:52:14;9.13;;;5.22;;
54853;SDS011;40747;49.480;8.658;2024-02-28T04:54:40;9.20;;;5.22;;
54853;SDS011;40747;49.480;8.658;2024-02-28T04:57:06;6.55;;;4.68;;
54853;SDS011;40747;49.480;8.658;2024-02-28T04:59:33;10.98;;;5.38;;
54853;SDS011;40747;49.480;8.658;2024-02-28T05:01:59;9.50;;;5.80;;
54853;SDS011;40747;49.480;8.658;2024-02-28T05:04:24;9.07;;;5.50;;
54853;SDS011;40747;49.480;8.658;2024-02-28T05:06:50;8.40;;;4.32;;
54853;SDS011;40747;49.480;8.658;2024-02-28T05:09:16;11.82;;;7.45;;
54853;SDS011;40747;49.480;8.658;2024-02-28T05:11:43;4.32;;;3.47;;
54853;SDS011;40747;49.480;8.658;2024-02-28T05:14:09;8.68;;;6.00;;
54853;SDS011;40747;49.480;8.658;2024-02-28T05:16:36;11.20;;;5.28;;
54853;SDS011;40747;49.480;8.658;2024-02-28T05:19:02;7.10;;;4.60;;
54853;SDS011;40747;49.480;8.658;2024-02-28T05:21:29;7.53;;;4.07;;
54853;SDS011;40747;49.480;8.658;2024-02-28T05:23:56;8.23;;;4.55;;
54853;SDS011;40747;49.480;8.658;2024-02-28T05:26:21;7.07;;;4.57;;
54853;SDS011;40747;49.480;8.658;2024-02-28T05:28:47;20.95;;;10.50;;
54853;SDS011;40747;49.480;8.658;2024-02-28T05:31:21;23.80;;;10.40;;
54853;SDS011;40747;49.480;8.658;2024-02-28T05:33:52;24.50;;;11.57;;
54853;SDS011;40747;49.480;8.658;2024-02-28T05:36:20;25.98;;;10.25;;
54853;SDS011;40747;49.480;8.658;2024-02-28T05:38:47;34.80;;;15.18;;
54853;SDS011;40747;49.480;8.658;2024-02-28T05:41:14;38.28;;;15.40;;
54853;SDS011;40747;49.480;8.658;2024-02-28T05:43:42;31.38;;;13.27;;
54853;SDS011;40747;49.480;8.658;2024-02-28T05:46:08;30.98;;;13.48;;
54853;SDS011;40747;49.480;8.658;2024-02-28T05:48:34;25.80;;;12.20;;
54853;SDS011;40747;49.480;8.658;2024-02-28T05:51:00;29.98;;;12.43;;
54853;SDS011;40747;49.480;8.658;2024-02-28T05:53:27;34.22;;;15.13;;
54853;SDS011;40747;49.480;8.658;2024-02-28T05:55:57;30.65;;;14.38;;
54853;SDS011;40747;49.480;8.658;2024-02-28T05:58:24;32.10;;;13.10;;
54853;SDS011;40747;49.480;8.658;2024-02-28T06:00:51;40.70;;;16.35;;
54853;SDS011;40747;49.480;8.658;2024-02-28T06:03:17;36.47;;;14.13;;
54853;SDS011;40747;49.480;8.658;2024-02-28T06:05:43;35.60;;;14.95;;
54853;SDS011;40747;49.480;8.658;2024-02-28T06:08:09;15.52;;;6.43;;
54853;SDS011;40747;49.480;8.658;2024-02-28T06:10:35;6.28;;;5.05;;
54853;SDS011;40747;49.480;8.658;2024-02-28T06:13:01;5.50;;;4.75;;
54853;SDS011;40747;49.480;8.658;2024-02-28T06:15:28;14.43;;;8.35;;
54853;SDS011;40747;49.480;8.658;2024-02-28T06:17:57;13.88;;;7.05;;
54853;SDS011;40747;49.480;8.658;2024-02-28T06:20:25;7.72;;;5.90;;
54853;SDS011;40747;49.480;8.658;2024-02-28T06:22:51;15.48;;;8.75;;
54853;SDS011;40747;49.480;8.658;2024-02-28T06:25:18;13.07;;;8.85;;
54853;SDS011;40747;49.480;8.658;2024-02-28T06:27:47;10.18;;;7.22;;
54853;SDS011;40747;49.480;8.658;2024-02-28T06:30:14;7.25;;;6.22;;
54853;SDS011;40747;49.480;8.658;2024-02-28T06:32:42;5.95;;;4.35;;
54853;SDS011;40747;49.480;8.658;2024-02-28T06:35:08;16.35;;;5.85;;
54853;SDS011;40747;49.480;8.658;2024-02-28T06:37:35;6.68;;;4.57;;
54853;SDS011;40747;49.480;8.658;2024-02-28T06:40:02;9.27;;;4.75;;
54853;SDS011;40747;49.480;8.658;2024-02-28T06:42:29;10.25;;;4.32;;
54853;SDS011;40747;49.480;8.658;2024-02-28T06:44:56;12.15;;;4.53;;
54853;SDS011;40747;49.480;8.658;2024-02-28T06:47:22;10.07;;;5.55;;
54853;SDS011;40747;49.480;8.658;2024-02-28T06:49:49;9.32;;;5.63;;
54853;SDS011;40747;49.480;8.658;2024-02-28T06:52:17;4.47;;;4.00;;
54853;SDS011;40747;49.480;8.658;2024-02-28T06:54:43;8.07;;;4.97;;
54853;SDS011;40747;49.480;8.658;2024-02-28T06:57:10;11.32;;;7.03;;
54853;SDS011;40747;49.480;8.658;2024-02-28T06:59:36;18.13;;;8.43;;
54853;SDS011;40747;49.480;8.658;2024-02-28T07:02:02;20.63;;;9.52;;
54853;SDS011;40747;49.480;8.658;2024-02-28T07:04:29;24.15;;;9.77;;
54853;SDS011;40747;49.480;8.658;2024-02-28T07:06:55;13.88;;;9.65;;
54853;SDS011;40747;49.480;8.658;2024-02-28T07:09:21;17.92;;;8.60;;
54853;SDS011;40747;49.480;8.658;2024-02-28T07:11:47;10.55;;;7.72;;
54853;SDS011;40747;49.480;8.658;2024-02-28T07:14:13;6.72;;;5.03;;
54853;SDS011;40747;49.480;8.658;2024-02-28T07:16:40;7.35;;;5.43;;
54853;SDS011;40747;49.480;8.658;2024-02-28T07:19:06;11.02;;;6.72;;
54853;SDS011;40747;49.480;8.658;2024-02-28T07:21:32;12.10;;;7.00;;
54853;SDS011;40747;49.480;8.658;2024-02-28T07:23:58;9.48;;;5.70;;
54853;SDS011;40747;49.480;8.658;2024-02-28T07:26:24;10.02;;;7.30;;
54853;SDS011;40747;49.480;8.658;2024-02-28T07:28:51;11.95;;;7.38;;
54853;SDS011;40747;49.480;8.658;2024-02-28T07:31:20;11.48;;;6.80;;
54853;SDS011;40747;49.480;8.658;2024-02-28T07:33:47;12.77;;;7.30;;
54853;SDS011;40747;49.480;8.658;2024-02-28T07:36:14;7.40;;;5.43;;
54853;SDS011;40747;49.480;8.658;2024-02-28T07:38:43;10.85;;;5.97;;
54853;SDS011;40747;49.480;8.658;2024-02-28T07:41:09;11.65;;;8.70;;
54853;SDS011;40747;49.480;8.658;2024-02-28T07:43:35;16.85;;;7.20;;
54853;SDS011;40747;49.480;8.658;2024-02-28T07:46:08;13.52;;;8.30;;
54853;SDS011;40747;49.480;8.658;2024-02-28T07:48:37;14.43;;;8.48;;
54853;SDS011;40747;49.480;8.658;2024-02-28T07:51:04;8.40;;;6.13;;
54853;SDS011;40747;49.480;8.658;2024-02-28T07:53:32;14.43;;;7.85;;
54853;SDS011;40747;49.480;8.658;2024-02-28T07:55:58;7.78;;;4.97;;
54853;SDS011;40747;49.480;8.658;2024-02-28T07:58:25;15.07;;;8.15;;
54853;SDS011;40747;49.480;8.658;2024-02-28T08:00:51;19.50;;;7.22;;
54853;SDS011;40747;49.480;8.658;2024-02-28T08:03:20;9.68;;;7.47;;
54853;SDS011;40747;49.480;8.658;2024-02-28T08:05:46;11.77;;;6.95;;
54853;SDS011;40747;49.480;8.658;2024-02-28T08:08:13;17.88;;;9.75;;
54853;SDS011;40747;49.480;8.658;2024-02-28T08:10:40;10.65;;;7.25;;
54853;SDS011;40747;49.480;8.658;2024-02-28T08:13:06;17.25;;;8.65;;
54853;SDS011;40747;49.480;8.658;2024-02-28T08:15:33;11.77;;;6.50;;
54853;SDS011;40747;49.480;8.658;2024-02-28T08:17:59;9.40;;;6.05;;
54853;SDS011;40747;49.480;8.658;2024-02-28T08:20:25;14.27;;;6.80;;
54853;SDS011;40747;49.480;8.658;2024-02-28T08:22:52;9.05;;;4.93;;
54853;SDS011;40747;49.480;8.658;2024-02-28T08:25:18;7.50;;;4.75;;
54853;SDS011;40747;49.480;8.658;2024-02-28T08:27:46;11.60;;;6.63;;
54853;SDS011;40747;49.480;8.658;2024-02-28T08:30:14;14.05;;;7.82;;
54853;SDS011;40747;49.480;8.658;2024-02-28T08:32:41;11.93;;;6.45;;
54853;SDS011;40747;49.480;8.658;2024-02-28T08:35:08;14.20;;;6.72;;
54853;SDS011;40747;49.480;8.658;2024-02-28T08:37:37;18.95;;;6.43;;
54853;SDS011;40747;49.480;8.658;2024-02-28T08:40:04;12.18;;;6.90;;
54853;SDS011;40747;49.480;8.658;2024-02-28T08:42:32;17.30;;;7.07;;
54853;SDS011;40747;49.480;8.658;2024-02-28T08:44:59;13.98;;;7.15;;
54853;SDS011;40747;49.480;8.658;2024-02-28T08:47:26;13.35;;;7.10;;
54853;SDS011;40747;49.480;8.658;2024-02-28T08:49:53;16.40;;;7.20;;
54853;SDS011;40747;49.480;8.658;2024-02-28T08:52:20;11.82;;;6.60;;
54853;SDS011;40747;49.480;8.658;2024-02-28T08:54:47;11.88;;;6.82;;
54853;SDS011;40747;49.480;8.658;2024-02-28T08:57:14;12.98;;;6.03;;
54853;SDS011;40747;49.480;8.658;2024-02-28T08:59:40;11.88;;;6.55;;
54853;SDS011;40747;49.480;8.658;2024-02-28T09:02:06;15.88;;;7.70;;
54853;SDS011;40747;49.480;8.658;2024-02-28T09:04:33;17.83;;;7.90;;
54853;SDS011;40747;49.480;8.658;2024-02-28T09:06:59;15.68;;;7.00;;
54853;SDS011;40747;49.480;8.658;2024-02-28T09:09:26;11.85;;;7.20;;
54853;SDS011;40747;49.480;8.658;2024-02-28T09:11:54;14.82;;;8.50;;
54853;SDS011;40747;49.480;8.658;2024-02-28T09:14:20;18.88;;;9.85;;
54853;SDS011;40747;49.480;8.658;2024-02-28T09:16:47;20.98;;;7.93;;
54853;SDS011;40747;49.480;8.658;2024-02-28T09:19:13;17.10;;;8.85;;
54853;SDS011;40747;49.480;8.658;2024-02-28T09:21:40;24.83;;;12.23;;
54853;SDS011;40747;49.480;8.658;2024-02-28T09:24:06;14.07;;;7.68;;
54853;SDS011;40747;49.480;8.658;2024-02-28T09:26:34;12.82;;;7.50;;
54853;SDS011;40747;49.480;8.658;2024-02-28T09:29:04;16.17;;;7.60;;
54853;SDS011;40747;49.480;8.658;2024-02-28T09:31:31;13.38;;;7.30;;
54853;SDS011;40747;49.480;8.658;2024-02-28T09:33:56;16.48;;;8.23;;
54853;SDS011;40747;49.480;8.658;2024-02-28T09:36:23;13.20;;;8.35;;
54853;SDS011;40747;49.480;8.658;2024-02-28T09:38:50;11.68;;;7.68;;
54853;SDS011;40747;49.480;8.658;2024-02-28T09:41:16;12.32;;;6.65;;
54853;SDS011;40747;49.480;8.658;2024-02-28T09:43:43;13.90;;;6.95;;
54853;SDS011;40747;49.480;8.658;2024-02-28T09:46:12;11.15;;;6.85;;
54853;SDS011;40747;49.480;8.658;2024-02-28T09:48:39;17.42;;;8.65;;
54853;SDS011;40747;49.480;8.658;2024-02-28T09:51:06;12.35;;;7.80;;
54853;SDS011;40747;49.480;8.658;2024-02-28T09:53:38;9.65;;;5.97;;
54853;SDS011;40747;49.480;8.658;2024-02-28T09:56:05;16.90;;;8.93;;
54853;SDS011;40747;49.480;8.658;2024-02-28T09:58:35;19.30;;;8.23;;
54853;SDS011;40747;49.480;8.658;2024-02-28T10:01:04;13.43;;;7.15;;
54853;SDS011;40747;49.480;8.658;2024-02-28T10:03:34;17.63;;;9.23;;
54853;SDS011;40747;49.480;8.658;2024-02-28T10:06:02;16.55;;;8.30;;
54853;SDS011;40747;49.480;8.658;2024-02-28T10:08:28;15.27;;;8.18;;
54853;SDS011;40747;49.480;8.658;2024-02-28T10:10:57;17.27;;;7.55;;
54853;SDS011;40747;49.480;8.658;2024-02-28T10:13:24;19.35;;;10.23;;
54853;SDS011;40747;49.480;8.658;2024-02-28T10:15:50;16.73;;;8.15;;
54853;SDS011;40747;49.480;8.658;2024-02-28T10:18:16;18.70;;;8.93;;
54853;SDS011;40747;49.480;8.658;2024-02-28T10:20:43;18.42;;;9.93;;
54853;SDS011;40747;49.480;8.658;2024-02-28T10:23:09;24.92;;;11.95;;
54853;SDS011;40747;49.480;8.658;2024-02-28T10:25:42;22.40;;;10.23;;
54853;SDS011;40747;49.480;8.658;2024-02-28T10:28:12;20.75;;;8.93;;
54853;SDS011;40747;49.480;8.658;2024-02-28T10:30:43;20.48;;;7.93;;
54853;SDS011;40747;49.480;8.658;2024-02-28T10:33:13;22.67;;;10.25;;
54853;SDS011;40747;49.480;8.658;2024-02-28T10:35:43;20.75;;;10.43;;
54853;SDS011;40747;49.480;8.658;2024-02-28T10:38:10;19.13;;;8.40;;
54853;SDS011;40747;49.480;8.658;2024-02-28T10:40:40;17.30;;;8.50;;
54853;SDS011;40747;49.480;8.658;2024-02-28T10:43:09;18.98;;;10.15;;
54853;SDS011;40747;49.480;8.658;2024-02-28T10:45:36;18.63;;;9.50;;
54853;SDS011;40747;49.480;8.658;2024-02-28T10:48:05;16.65;;;8.85;;
54853;SDS011;40747;49.480;8.658;2024-02-28T10:50:31;16.48;;;8.20;;
54853;SDS011;40747;49.480;8.658;2024-02-28T10:53:01;16.42;;;7.70;;
54853;SDS011;40747;49.480;8.658;2024-02-28T10:55:34;18.13;;;8.85;;
54853;SDS011;40747;49.480;8.658;2024-02-28T10:58:08;23.58;;;9.95;;
54853;SDS011;40747;49.480;8.658;2024-02-28T11:00:38;16.83;;;9.00;;
54853;SDS011;40747;49.480;8.658;2024-02-28T11:03:04;18.65;;;8.25;;
54853;SDS011;40747;49.480;8.658;2024-02-28T11:05:36;17.90;;;8.82;;
54853;SDS011;40747;49.480;8.658;2024-02-28T11:08:04;19.67;;;9.43;;
54853;SDS011;40747;49.480;8.658;2024-02-28T11:10:36;22.58;;;9.07;;
54853;SDS011;40747;49.480;8.658;2024-02-28T11:13:05;18.55;;;9.60;;
54853;SDS011;40747;49.480;8.658;2024-02-28T11:15:30;17.02;;;7.65;;
54853;SDS011;40747;49.480;8.658;2024-02-28T11:18:06;16.50;;;9.45;;
54853;SDS011;40747;49.480;8.658;2024-02-28T11:20:33;21.05;;;9.75;;
54853;SDS011;40747;49.480;8.658;2024-02-28T11:22:59;19.05;;;8.35;;
54853;SDS011;40747;49.480;8.658;2024-02-28T11:25:25;15.65;;;8.15;;
54853;SDS011;40747;49.480;8.658;2024-02-28T11:27:50;16.23;;;7.32;;
54853;SDS011;40747;49.480;8.658;2024-02-28T11:30:15;18.33;;;8.57;;
54853;SDS011;40747;49.480;8.658;2024-02-28T11:32:41;19.67;;;9.57;;
54853;SDS011;40747;49.480;8.658;2024-02-28T11:35:07;16.38;;;7.93;;
54853;SDS011;40747;49.480;8.658;2024-02-28T11:37:32;16.33;;;7.85;;
54853;SDS011;40747;49.480;8.658;2024-02-28T11:39:59;18.38;;;7.60;;
54853;SDS011;40747;49.480;8.658;2024-02-28T11:42:24;15.13;;;6.78;;
54853;SDS011;40747;49.480;8.658;2024-02-28T11:44:53;14.45;;;6.70;;
54853;SDS011;40747;49.480;8.658;2024-02-28T11:49:48;13.05;;;6.47;;
54853;SDS011;40747;49.480;8.658;2024-02-28T11:52:14;13.50;;;6.78;;
54853;SDS011;40747;49.480;8.658;2024-02-28T11:54:39;15.35;;;7.30;;
54853;SDS011;40747;49.480;8.658;2024-02-28T11:57:05;12.95;;;7.97;;
54853;SDS011;40747;49.480;8.658;2024-02-28T11:59:32;14.57;;;7.30;;
54853;SDS011;40747;49.480;8.658;2024-02-28T12:01:58;21.10;;;8.10;;
54853;SDS011;40747;49.480;8.658;2024-02-28T12:04:26;15.00;;;7.88;;
54853;SDS011;40747;49.480;8.658;2024-02-28T12:06:51;15.13;;;8.07;;
54853;SDS011;40747;49.480;8.658;2024-02-28T12:09:16;12.43;;;6.95;;
54853;SDS011;40747;49.480;8.658;2024-02-28T12:11:43;15.27;;;7.50;;
54853;SDS011;40747;49.480;8.658;2024-02-28T12:14:09;14.80;;;6.80;;
54853;SDS011;40747;49.480;8.658;2024-02-28T12:16:38;14.30;;;6.78;;
54853;SDS011;40747;49.480;8.658;2024-02-28T12:19:11;16.65;;;6.70;;
54853;SDS011;40747;49.480;8.658;2024-02-28T12:21:38;13.57;;;6.60;;
54853;SDS011;40747;49.480;8.658;2024-02-28T12:24:04;18.13;;;8.68;;
54853;SDS011;40747;49.480;8.658;2024-02-28T12:26:36;13.93;;;7.18;;
54853;SDS011;40747;49.480;8.658;2024-02-28T12:29:03;16.27;;;8.27;;
54853;SDS011;40747;49.480;8.658;2024-02-28T12:31:28;14.65;;;7.45;;
54853;SDS011;40747;49.480;8.658;2024-02-28T12:33:53;16.48;;;7.65;;
54853;SDS011;40747;49.480;8.658;2024-02-28T12:36:19;17.75;;;8.18;;
54853;SDS011;40747;49.480;8.658;2024-02-28T12:38:45;15.73;;;8.35;;
54853;SDS011;40747;49.480;8.658;2024-02-28T12:41:10;13.77;;;6.90;;
54853;SDS011;40747;49.480;8.658;2024-02-28T12:43:36;20.90;;;9.20;;
54853;SDS011;40747;49.480;8.658;2024-02-28T12:46:01;14.18;;;7.15;;
54853;SDS011;40747;49.480;8.658;2024-02-28T12:48:27;15.68;;;8.13;;
54853;SDS011;40747;49.480;8.658;2024-02-28T12:50:54;12.68;;;7.65;;
54853;SDS011;40747;49.480;8.658;2024-02-28T12:53:19;13.80;;;6.70;;
54853;SDS011;40747;49.480;8.658;2024-02-28T12:55:45;16.40;;;8.10;;
54853;SDS011;40747;49.480;8.658;2024-02-28T12:58:10;15.45;;;7.75;;
54853;SDS011;40747;49.480;8.658;2024-02-28T13:00:36;13.95;;;7.47;;
54853;SDS011;40747;49.480;8.658;2024-02-28T13:03:01;14.88;;;7.28;;
54853;SDS011;40747;49.480;8.658;2024-02-28T13:05:28;17.27;;;7.30;;
54853;SDS011;40747;49.480;8.658;2024-02-28T13:07:53;17.55;;;7.65;;
54853;SDS011;40747;49.480;8.658;2024-02-28T13:10:18;12.05;;;6.75;;
54853;SDS011;40747;49.480;8.658;2024-02-28T13:12:44;20.20;;;8.70;;
54853;SDS011;40747;49.480;8.658;2024-02-28T13:15:09;15.50;;;7.55;;
54853;SDS011;40747;49.480;8.658;2024-02-28T13:17:34;16.17;;;7.28;;
54853;SDS011;40747;49.480;8.658;2024-02-28T13:19:59;15.13;;;7.78;;
54853;SDS011;40747;49.480;8.658;2024-02-28T13:22:25;15.50;;;6.75;;
54853;SDS011;40747;49.480;8.658;2024-02-28T13:24:51;14.73;;;8.07;;
54853;SDS011;40747;49.480;8.658;2024-02-28T13:27:16;11.75;;;6.05;;
54853;SDS011;40747;49.480;8.658;2024-02-28T13:29:41;18.80;;;9.00;;
54853;SDS011;40747;49.480;8.658;2024-02-28T13:32:07;16.45;;;8.50;;
54853;SDS011;40747;49.480;8.658;2024-02-28T13:34:32;15.35;;;7.70;;
54853;SDS011;40747;49.480;8.658;2024-02-28T13:36:57;16.65;;;6.97;;
54853;SDS011;40747;49.480;8.658;2024-02-28T13:39:23;11.82;;;6.85;;
54853;SDS011;40747;49.480;8.658;2024-02-28T13:41:49;12.60;;;6.47;;
54853;SDS011;40747;49.480;8.658;2024-02-28T13:44:16;13.00;;;6.63;;
54853;SDS011;40747;49.480;8.658;2024-02-28T13:46:42;12.35;;;6.10;;
54853;SDS011;40747;49.480;8.658;2024-02-28T13:49:07;11.23;;;5.20;;
54853;SDS011;40747;49.480;8.658;2024-02-28T13:51:32;12.05;;;5.85;;
54853;SDS011;40747;49.480;8.658;2024-02-28T13:53:58;13.45;;;6.30;;
54853;SDS011;40747;49.480;8.658;2024-02-28T13:56:23;15.00;;;6.28;;
54853;SDS011;40747;49.480;8.658;2024-02-28T13:58:49;9.10;;;5.80;;
54853;SDS011;40747;49.480;8.658;2024-02-28T14:01:14;11.65;;;6.13;;
54853;SDS011;40747;49.480;8.658;2024-02-28T14:03:40;11.48;;;5.65;;
54853;SDS011;40747;49.480;8.658;2024-02-28T14:06:05;11.07;;;5.20;;
54853;SDS011;40747;49.480;8.658;2024-02-28T14:08:31;15.07;;;7.15;;
54853;SDS011;40747;49.480;8.658;2024-02-28T14:10:56;9.70;;;5.38;;
54853;SDS011;40747;49.480;8.658;2024-02-28T14:13:23;11.20;;;5.55;;
54853;SDS011;40747;49.480;8.658;2024-02-28T14:15:49;14.43;;;6.47;;
54853;SDS011;40747;49.480;8.658;2024-02-28T14:18:15;11.68;;;5.80;;
54853;SDS011;40747;49.480;8.658;2024-02-28T14:20:42;13.45;;;5.93;;
54853;SDS011;40747;49.480;8.658;2024-02-28T14:23:07;9.63;;;5.20;;
54853;SDS011;40747;49.480;8.658;2024-02-28T14:25:33;9.10;;;6.30;;
54853;SDS011;40747;49.480;8.658;2024-02-28T14:27:58;12.35;;;5.72;;
54853;SDS011;40747;49.480;8.658;2024-02-28T14:30:24;11.88;;;5.65;;
54853;SDS011;40747;49.480;8.658;2024-02-28T14:32:49;13.45;;;6.05;;
54853;SDS011;40747;49.480;8.658;2024-02-28T14:35:15;9.55;;;5.32;;
54853;SDS011;40747;49.480;8.658;2024-02-28T14:37:40;10.35;;;5.90;;